Merida, Venezuela
Current Conditions -  °F | °C
As of 4:00 PM on Wednesday 26 Nov 2014 (Local Time) from SVMD Reporting Station
Few Clouds Few Clouds  
Wind Chill: 77°   Ceiling: Unl
Heat Index: 79°   Visibility: 6mi
Dew Point: 64°   Wind: 14mph
Humidity: 65%   Direction: 250°WSW
Pressure: 30.06"   Gusts: NA
Location:  8.4°N, 71.13°W
Report Text: SVMD 262000Z 25012KT 9999 FEW020 25/18 Q1018
Loading
Personal Weather Stations






























Interactive Weather Map New forecast layout! Learn more

10-Day Weather Forecast

Advertisements
Track Severe Weather on mobile